sensor_id;sensor_type;location;lat;lon;timestamp;P1;durP1;ratioP1;P2;durP2;ratioP2
68995;SDS011;56056;48.990;12.146;2023-04-07T00:01:06;10.68;;;9.93;;
68995;SDS011;56056;48.990;12.146;2023-04-07T00:03:31;21.90;;;20.48;;
68995;SDS011;56056;48.990;12.146;2023-04-07T00:05:57;21.58;;;19.92;;
68995;SDS011;56056;48.990;12.146;2023-04-07T00:08:23;15.18;;;13.85;;
68995;SDS011;56056;48.990;12.146;2023-04-07T00:10:50;7.15;;;6.45;;
68995;SDS011;56056;48.990;12.146;2023-04-07T00:13:15;23.27;;;21.42;;
68995;SDS011;56056;48.990;12.146;2023-04-07T00:15:41;20.48;;;18.73;;
68995;SDS011;56056;48.990;12.146;2023-04-07T00:18:07;19.30;;;17.23;;
68995;SDS011;56056;48.990;12.146;2023-04-07T00:20:32;24.35;;;22.52;;
68995;SDS011;56056;48.990;12.146;2023-04-07T00:22:58;21.48;;;19.73;;
68995;SDS011;56056;48.990;12.146;2023-04-07T00:25:24;9.40;;;8.55;;
68995;SDS011;56056;48.990;12.146;2023-04-07T00:27:50;9.55;;;7.88;;
68995;SDS011;56056;48.990;12.146;2023-04-07T00:30:16;18.23;;;16.83;;
68995;SDS011;56056;48.990;12.146;2023-04-07T00:32:42;20.73;;;19.27;;
68995;SDS011;56056;48.990;12.146;2023-04-07T00:35:08;6.65;;;6.25;;
68995;SDS011;56056;48.990;12.146;2023-04-07T00:37:34;7.43;;;6.82;;
68995;SDS011;56056;48.990;12.146;2023-04-07T00:39:59;21.05;;;19.58;;
68995;SDS011;56056;48.990;12.146;2023-04-07T00:42:25;9.35;;;8.35;;
68995;SDS011;56056;48.990;12.146;2023-04-07T00:44:52;5.85;;;5.55;;
68995;SDS011;56056;48.990;12.146;2023-04-07T00:47:18;16.15;;;14.80;;
68995;SDS011;56056;48.990;12.146;2023-04-07T00:49:44;7.53;;;7.03;;
68995;SDS011;56056;48.990;12.146;2023-04-07T00:52:10;9.20;;;8.50;;
68995;SDS011;56056;48.990;12.146;2023-04-07T00:54:36;10.52;;;9.95;;
68995;SDS011;56056;48.990;12.146;2023-04-07T00:57:02;6.30;;;5.82;;
68995;SDS011;56056;48.990;12.146;2023-04-07T00:59:28;6.60;;;6.05;;
68995;SDS011;56056;48.990;12.146;2023-04-07T01:01:59;7.47;;;6.85;;
68995;SDS011;56056;48.990;12.146;2023-04-07T01:07:16;11.93;;;10.98;;
68995;SDS011;56056;48.990;12.146;2023-04-07T01:09:44;13.43;;;12.35;;
68995;SDS011;56056;48.990;12.146;2023-04-07T01:12:13;9.57;;;8.95;;
68995;SDS011;56056;48.990;12.146;2023-04-07T01:14:45;14.05;;;13.13;;
68995;SDS011;56056;48.990;12.146;2023-04-07T01:17:16;19.60;;;18.20;;
68995;SDS011;56056;48.990;12.146;2023-04-07T01:19:42;5.60;;;5.20;;
68995;SDS011;56056;48.990;12.146;2023-04-07T01:22:11;9.75;;;8.90;;
68995;SDS011;56056;48.990;12.146;2023-04-07T01:24:43;9.68;;;8.95;;
68995;SDS011;56056;48.990;12.146;2023-04-07T01:27:18;21.15;;;19.80;;
68995;SDS011;56056;48.990;12.146;2023-04-07T01:29:47;6.60;;;6.15;;
68995;SDS011;56056;48.990;12.146;2023-04-07T01:32:14;16.90;;;15.50;;
68995;SDS011;56056;48.990;12.146;2023-04-07T01:34:44;7.00;;;6.22;;
68995;SDS011;56056;48.990;12.146;2023-04-07T01:37:12;15.82;;;14.77;;
68995;SDS011;56056;48.990;12.146;2023-04-07T01:39:38;18.80;;;17.52;;
68995;SDS011;56056;48.990;12.146;2023-04-07T01:42:04;5.90;;;5.55;;
68995;SDS011;56056;48.990;12.146;2023-04-07T01:44:31;6.97;;;6.40;;
68995;SDS011;56056;48.990;12.146;2023-04-07T01:46:58;11.10;;;10.35;;
68995;SDS011;56056;48.990;12.146;2023-04-07T01:49:25;18.42;;;17.20;;
68995;SDS011;56056;48.990;12.146;2023-04-07T01:51:51;10.68;;;9.88;;
68995;SDS011;56056;48.990;12.146;2023-04-07T01:54:17;13.43;;;12.10;;
68995;SDS011;56056;48.990;12.146;2023-04-07T01:56:43;12.45;;;11.27;;
68995;SDS011;56056;48.990;12.146;2023-04-07T01:59:09;16.98;;;15.88;;
68995;SDS011;56056;48.990;12.146;2023-04-07T02:01:35;21.10;;;19.58;;
68995;SDS011;56056;48.990;12.146;2023-04-07T02:04:04;19.73;;;18.38;;
68995;SDS011;56056;48.990;12.146;2023-04-07T02:06:33;11.43;;;10.80;;
68995;SDS011;56056;48.990;12.146;2023-04-07T02:09:04;20.05;;;18.67;;
68995;SDS011;56056;48.990;12.146;2023-04-07T02:11:32;9.07;;;8.25;;
68995;SDS011;56056;48.990;12.146;2023-04-07T02:13:58;19.38;;;17.67;;
68995;SDS011;56056;48.990;12.146;2023-04-07T02:16:25;11.77;;;11.00;;
68995;SDS011;56056;48.990;12.146;2023-04-07T02:18:52;5.63;;;5.22;;
68995;SDS011;56056;48.990;12.146;2023-04-07T02:21:20;21.80;;;19.95;;
68995;SDS011;56056;48.990;12.146;2023-04-07T02:23:46;6.88;;;6.38;;
68995;SDS011;56056;48.990;12.146;2023-04-07T02:26:12;24.20;;;22.70;;
68995;SDS011;56056;48.990;12.146;2023-04-07T02:28:38;9.77;;;9.15;;
68995;SDS011;56056;48.990;12.146;2023-04-07T02:31:03;23.45;;;21.80;;
68995;SDS011;56056;48.990;12.146;2023-04-07T02:33:29;6.47;;;6.10;;
68995;SDS011;56056;48.990;12.146;2023-04-07T02:35:55;10.32;;;9.60;;
68995;SDS011;56056;48.990;12.146;2023-04-07T02:38:22;5.78;;;5.38;;
68995;SDS011;56056;48.990;12.146;2023-04-07T02:40:48;21.63;;;20.08;;
68995;SDS011;56056;48.990;12.146;2023-04-07T02:43:13;9.82;;;9.05;;
68995;SDS011;56056;48.990;12.146;2023-04-07T02:45:40;24.77;;;22.92;;
68995;SDS011;56056;48.990;12.146;2023-04-07T02:48:06;31.67;;;29.03;;
68995;SDS011;56056;48.990;12.146;2023-04-07T02:50:31;7.75;;;7.13;;
68995;SDS011;56056;48.990;12.146;2023-04-07T02:52:57;22.83;;;21.00;;
68995;SDS011;56056;48.990;12.146;2023-04-07T02:55:24;8.82;;;8.35;;
68995;SDS011;56056;48.990;12.146;2023-04-07T02:57:49;20.35;;;18.80;;
68995;SDS011;56056;48.990;12.146;2023-04-07T03:00:15;25.60;;;23.95;;
68995;SDS011;56056;48.990;12.146;2023-04-07T03:02:41;12.43;;;11.38;;
68995;SDS011;56056;48.990;12.146;2023-04-07T03:05:07;8.80;;;7.90;;
68995;SDS011;56056;48.990;12.146;2023-04-07T03:07:33;22.75;;;21.10;;
68995;SDS011;56056;48.990;12.146;2023-04-07T03:09:58;9.20;;;8.50;;
68995;SDS011;56056;48.990;12.146;2023-04-07T03:12:25;6.80;;;6.22;;
68995;SDS011;56056;48.990;12.146;2023-04-07T03:14:51;23.58;;;22.10;;
68995;SDS011;56056;48.990;12.146;2023-04-07T03:17:17;21.27;;;19.77;;
68995;SDS011;56056;48.990;12.146;2023-04-07T03:19:42;28.08;;;26.23;;
68995;SDS011;56056;48.990;12.146;2023-04-07T03:22:08;7.85;;;7.38;;
68995;SDS011;56056;48.990;12.146;2023-04-07T03:24:33;6.53;;;5.88;;
68995;SDS011;56056;48.990;12.146;2023-04-07T03:26:59;21.50;;;20.20;;
68995;SDS011;56056;48.990;12.146;2023-04-07T03:29:27;22.58;;;21.05;;
68995;SDS011;56056;48.990;12.146;2023-04-07T03:31:53;19.17;;;17.95;;
68995;SDS011;56056;48.990;12.146;2023-04-07T03:34:18;11.38;;;9.80;;
68995;SDS011;56056;48.990;12.146;2023-04-07T03:36:44;10.93;;;10.15;;
68995;SDS011;56056;48.990;12.146;2023-04-07T03:39:10;20.08;;;18.85;;
68995;SDS011;56056;48.990;12.146;2023-04-07T03:41:35;6.28;;;5.93;;
68995;SDS011;56056;48.990;12.146;2023-04-07T03:44:01;43.75;;;40.92;;
68995;SDS011;56056;48.990;12.146;2023-04-07T03:46:28;16.77;;;15.47;;
68995;SDS011;56056;48.990;12.146;2023-04-07T03:48:53;28.90;;;26.63;;
68995;SDS011;56056;48.990;12.146;2023-04-07T03:51:19;17.57;;;16.53;;
68995;SDS011;56056;48.990;12.146;2023-04-07T03:53:45;20.43;;;18.83;;
68995;SDS011;56056;48.990;12.146;2023-04-07T03:56:11;26.55;;;24.58;;
68995;SDS011;56056;48.990;12.146;2023-04-07T03:58:36;12.93;;;12.05;;
68995;SDS011;56056;48.990;12.146;2023-04-07T04:01:02;12.10;;;11.10;;
68995;SDS011;56056;48.990;12.146;2023-04-07T04:03:29;6.90;;;6.53;;
68995;SDS011;56056;48.990;12.146;2023-04-07T04:05:55;19.93;;;18.70;;
68995;SDS011;56056;48.990;12.146;2023-04-07T04:08:21;26.50;;;24.75;;
68995;SDS011;56056;48.990;12.146;2023-04-07T04:10:46;7.67;;;7.10;;
68995;SDS011;56056;48.990;12.146;2023-04-07T04:13:12;33.22;;;31.08;;
68995;SDS011;56056;48.990;12.146;2023-04-07T04:15:38;12.77;;;10.93;;
68995;SDS011;56056;48.990;12.146;2023-04-07T04:18:03;22.27;;;20.90;;
68995;SDS011;56056;48.990;12.146;2023-04-07T04:20:30;7.60;;;6.20;;
68995;SDS011;56056;48.990;12.146;2023-04-07T04:22:56;8.25;;;7.68;;
68995;SDS011;56056;48.990;12.146;2023-04-07T04:25:21;21.88;;;20.42;;
68995;SDS011;56056;48.990;12.146;2023-04-07T04:27:48;29.95;;;28.08;;
68995;SDS011;56056;48.990;12.146;2023-04-07T04:30:13;38.47;;;35.95;;
68995;SDS011;56056;48.990;12.146;2023-04-07T04:32:39;27.70;;;26.02;;
68995;SDS011;56056;48.990;12.146;2023-04-07T04:35:05;9.65;;;8.85;;
68995;SDS011;56056;48.990;12.146;2023-04-07T04:37:32;20.15;;;18.88;;
68995;SDS011;56056;48.990;12.146;2023-04-07T04:39:58;26.97;;;25.27;;
68995;SDS011;56056;48.990;12.146;2023-04-07T04:42:24;23.77;;;22.58;;
68995;SDS011;56056;48.990;12.146;2023-04-07T04:44:51;24.35;;;22.77;;
68995;SDS011;56056;48.990;12.146;2023-04-07T04:47:17;32.13;;;30.23;;
68995;SDS011;56056;48.990;12.146;2023-04-07T04:49:43;13.15;;;12.23;;
68995;SDS011;56056;48.990;12.146;2023-04-07T04:52:09;35.17;;;33.05;;
68995;SDS011;56056;48.990;12.146;2023-04-07T04:54:36;27.10;;;24.63;;
68995;SDS011;56056;48.990;12.146;2023-04-07T04:57:02;24.50;;;22.65;;
68995;SDS011;56056;48.990;12.146;2023-04-07T04:59:28;31.70;;;29.20;;
68995;SDS011;56056;48.990;12.146;2023-04-07T05:01:53;11.75;;;10.88;;
68995;SDS011;56056;48.990;12.146;2023-04-07T05:04:19;21.73;;;20.10;;
68995;SDS011;56056;48.990;12.146;2023-04-07T05:06:45;34.60;;;31.90;;
68995;SDS011;56056;48.990;12.146;2023-04-07T05:09:10;12.67;;;11.40;;
68995;SDS011;56056;48.990;12.146;2023-04-07T05:11:37;9.77;;;9.00;;
68995;SDS011;56056;48.990;12.146;2023-04-07T05:14:05;11.50;;;10.55;;
68995;SDS011;56056;48.990;12.146;2023-04-07T05:16:30;10.88;;;10.18;;
68995;SDS011;56056;48.990;12.146;2023-04-07T05:18:56;31.30;;;29.50;;
68995;SDS011;56056;48.990;12.146;2023-04-07T05:21:21;16.20;;;11.10;;
68995;SDS011;56056;48.990;12.146;2023-04-07T05:23:47;23.90;;;22.30;;
68995;SDS011;56056;48.990;12.146;2023-04-07T05:26:13;10.07;;;9.45;;
68995;SDS011;56056;48.990;12.146;2023-04-07T05:28:40;17.20;;;16.02;;
68995;SDS011;56056;48.990;12.146;2023-04-07T05:31:05;11.93;;;9.70;;
68995;SDS011;56056;48.990;12.146;2023-04-07T05:33:31;18.98;;;17.77;;
68995;SDS011;56056;48.990;12.146;2023-04-07T05:35:58;29.02;;;26.98;;
68995;SDS011;56056;48.990;12.146;2023-04-07T05:38:23;16.88;;;8.60;;
68995;SDS011;56056;48.990;12.146;2023-04-07T05:40:49;9.30;;;8.47;;
68995;SDS011;56056;48.990;12.146;2023-04-07T05:43:15;8.57;;;7.85;;
68995;SDS011;56056;48.990;12.146;2023-04-07T05:45:42;9.68;;;9.02;;
68995;SDS011;56056;48.990;12.146;2023-04-07T05:48:08;18.80;;;17.40;;
68995;SDS011;56056;48.990;12.146;2023-04-07T05:50:33;8.10;;;7.45;;
68995;SDS011;56056;48.990;12.146;2023-04-07T05:52:59;20.90;;;19.33;;
68995;SDS011;56056;48.990;12.146;2023-04-07T05:55:25;9.90;;;9.32;;
68995;SDS011;56056;48.990;12.146;2023-04-07T05:57:51;6.25;;;5.85;;
68995;SDS011;56056;48.990;12.146;2023-04-07T06:00:17;12.23;;;11.27;;
68995;SDS011;56056;48.990;12.146;2023-04-07T06:02:45;13.68;;;12.68;;
68995;SDS011;56056;48.990;12.146;2023-04-07T06:05:10;9.82;;;8.82;;
68995;SDS011;56056;48.990;12.146;2023-04-07T06:07:36;6.70;;;6.05;;
68995;SDS011;56056;48.990;12.146;2023-04-07T06:10:02;9.05;;;8.30;;
68995;SDS011;56056;48.990;12.146;2023-04-07T06:12:28;8.70;;;7.97;;
68995;SDS011;56056;48.990;12.146;2023-04-07T06:14:54;9.88;;;8.98;;
68995;SDS011;56056;48.990;12.146;2023-04-07T06:17:20;14.10;;;13.00;;
68995;SDS011;56056;48.990;12.146;2023-04-07T06:19:47;7.80;;;7.10;;
68995;SDS011;56056;48.990;12.146;2023-04-07T06:22:13;5.88;;;5.38;;
68995;SDS011;56056;48.990;12.146;2023-04-07T06:24:38;5.72;;;4.88;;
68995;SDS011;56056;48.990;12.146;2023-04-07T06:27:04;5.35;;;4.95;;
68995;SDS011;56056;48.990;12.146;2023-04-07T06:29:31;6.63;;;4.95;;
68995;SDS011;56056;48.990;12.146;2023-04-07T06:31:57;9.60;;;8.77;;
68995;SDS011;56056;48.990;12.146;2023-04-07T06:34:22;8.13;;;7.53;;
68995;SDS011;56056;48.990;12.146;2023-04-07T06:36:51;35.05;;;32.95;;
68995;SDS011;56056;48.990;12.146;2023-04-07T06:39:16;84.90;;;80.80;;
68995;SDS011;56056;48.990;12.146;2023-04-07T06:41:42;359.50;;;339.98;;
68995;SDS011;56056;48.990;12.146;2023-04-07T06:44:08;370.13;;;350.05;;
68995;SDS011;56056;48.990;12.146;2023-04-07T06:46:35;782.92;;;734.22;;
68995;SDS011;56056;48.990;12.146;2023-04-07T06:49:00;1007.15;;;930.75;;
68995;SDS011;56056;48.990;12.146;2023-04-07T06:51:26;1012.38;;;929.95;;
68995;SDS011;56056;48.990;12.146;2023-04-07T06:53:53;1177.03;;;999.90;;
68995;SDS011;56056;48.990;12.146;2023-04-07T06:56:19;1249.82;;;999.90;;
68995;SDS011;56056;48.990;12.146;2023-04-07T06:58:46;1269.40;;;999.90;;
68995;SDS011;56056;48.990;12.146;2023-04-07T07:01:12;1282.50;;;999.90;;
68995;SDS011;56056;48.990;12.146;2023-04-07T07:03:37;1349.28;;;999.90;;
68995;SDS011;56056;48.990;12.146;2023-04-07T07:06:03;1422.53;;;999.90;;
68995;SDS011;56056;48.990;12.146;2023-04-07T07:08:29;1237.47;;;999.90;;
68995;SDS011;56056;48.990;12.146;2023-04-07T07:10:56;1401.72;;;999.90;;
68995;SDS011;56056;48.990;12.146;2023-04-07T07:13:22;1257.53;;;999.90;;
68995;SDS011;56056;48.990;12.146;2023-04-07T07:15:49;1096.80;;;995.83;;
68995;SDS011;56056;48.990;12.146;2023-04-07T07:18:15;1032.13;;;943.80;;
68995;SDS011;56056;48.990;12.146;2023-04-07T07:20:40;1006.05;;;925.40;;
68995;SDS011;56056;48.990;12.146;2023-04-07T07:23:06;999.33;;;918.10;;
68995;SDS011;56056;48.990;12.146;2023-04-07T07:25:32;1030.07;;;945.47;;
68995;SDS011;56056;48.990;12.146;2023-04-07T07:27:59;1047.35;;;957.95;;
68995;SDS011;56056;48.990;12.146;2023-04-07T07:30:25;1093.60;;;991.67;;
68995;SDS011;56056;48.990;12.146;2023-04-07T07:32:51;1147.75;;;999.90;;
68995;SDS011;56056;48.990;12.146;2023-04-07T07:35:17;1137.05;;;999.90;;
68995;SDS011;56056;48.990;12.146;2023-04-07T07:37:43;1115.82;;;999.90;;
68995;SDS011;56056;48.990;12.146;2023-04-07T07:40:09;1176.13;;;999.90;;
68995;SDS011;56056;48.990;12.146;2023-04-07T07:42:35;1160.63;;;999.90;;
68995;SDS011;56056;48.990;12.146;2023-04-07T07:45:03;1486.95;;;999.90;;
68995;SDS011;56056;48.990;12.146;2023-04-07T07:47:29;1496.97;;;999.90;;
68995;SDS011;56056;48.990;12.146;2023-04-07T07:49:55;1609.40;;;999.90;;
68995;SDS011;56056;48.990;12.146;2023-04-07T07:52:21;1453.97;;;999.90;;
68995;SDS011;56056;48.990;12.146;2023-04-07T07:54:47;1510.35;;;999.90;;
68995;SDS011;56056;48.990;12.146;2023-04-07T07:57:13;1988.63;;;999.90;;
68995;SDS011;56056;48.990;12.146;2023-04-07T07:59:38;1721.05;;;999.90;;
68995;SDS011;56056;48.990;12.146;2023-04-07T08:02:06;1999.90;;;999.90;;
68995;SDS011;56056;48.990;12.146;2023-04-07T08:04:32;1999.90;;;999.90;;
68995;SDS011;56056;48.990;12.146;2023-04-07T08:06:58;1954.18;;;999.90;;
68995;SDS011;56056;48.990;12.146;2023-04-07T08:09:24;1839.35;;;999.90;;
68995;SDS011;56056;48.990;12.146;2023-04-07T08:11:50;1938.70;;;999.90;;
68995;SDS011;56056;48.990;12.146;2023-04-07T08:14:16;1769.63;;;999.90;;
68995;SDS011;56056;48.990;12.146;2023-04-07T08:16:42;1999.90;;;999.90;;
68995;SDS011;56056;48.990;12.146;2023-04-07T08:19:09;1688.88;;;999.90;;
68995;SDS011;56056;48.990;12.146;2023-04-07T08:21:35;1593.75;;;999.90;;
68995;SDS011;56056;48.990;12.146;2023-04-07T08:24:01;1746.18;;;999.90;;
68995;SDS011;56056;48.990;12.146;2023-04-07T08:26:26;1553.78;;;999.90;;
68995;SDS011;56056;48.990;12.146;2023-04-07T08:28:52;1535.32;;;999.90;;
68995;SDS011;56056;48.990;12.146;2023-04-07T08:31:18;1651.35;;;999.90;;
68995;SDS011;56056;48.990;12.146;2023-04-07T08:33:44;1624.38;;;999.90;;
68995;SDS011;56056;48.990;12.146;2023-04-07T08:36:12;1785.18;;;999.90;;
68995;SDS011;56056;48.990;12.146;2023-04-07T08:38:37;1957.50;;;999.90;;
68995;SDS011;56056;48.990;12.146;2023-04-07T08:41:03;1390.45;;;999.90;;
68995;SDS011;56056;48.990;12.146;2023-04-07T08:43:32;1321.13;;;999.90;;
68995;SDS011;56056;48.990;12.146;2023-04-07T08:46:00;1258.68;;;999.90;;
68995;SDS011;56056;48.990;12.146;2023-04-07T08:48:26;1575.10;;;999.90;;
68995;SDS011;56056;48.990;12.146;2023-04-07T08:50:57;1120.20;;;995.03;;
68995;SDS011;56056;48.990;12.146;2023-04-07T08:53:27;1130.45;;;999.90;;
68995;SDS011;56056;48.990;12.146;2023-04-07T08:55:56;1363.50;;;999.90;;
68995;SDS011;56056;48.990;12.146;2023-04-07T08:58:22;1227.72;;;999.90;;
68995;SDS011;56056;48.990;12.146;2023-04-07T09:00:48;1356.50;;;999.90;;
68995;SDS011;56056;48.990;12.146;2023-04-07T09:03:14;1564.53;;;999.90;;
68995;SDS011;56056;48.990;12.146;2023-04-07T09:05:40;1220.93;;;999.90;;
68995;SDS011;56056;48.990;12.146;2023-04-07T09:08:07;1322.15;;;999.90;;
68995;SDS011;56056;48.990;12.146;2023-04-07T09:10:34;1432.38;;;999.90;;
68995;SDS011;56056;48.990;12.146;2023-04-07T09:13:00;1549.07;;;999.90;;
68995;SDS011;56056;48.990;12.146;2023-04-07T09:15:29;1931.30;;;999.90;;
68995;SDS011;56056;48.990;12.146;2023-04-07T09:17:55;1756.03;;;999.90;;
68995;SDS011;56056;48.990;12.146;2023-04-07T09:20:21;1871.20;;;999.90;;
68995;SDS011;56056;48.990;12.146;2023-04-07T09:22:47;1681.65;;;999.90;;
68995;SDS011;56056;48.990;12.146;2023-04-07T09:25:15;1319.28;;;999.90;;
68995;SDS011;56056;48.990;12.146;2023-04-07T09:27:53;1532.50;;;999.90;;
68995;SDS011;56056;48.990;12.146;2023-04-07T09:30:23;1567.07;;;999.90;;
68995;SDS011;56056;48.990;12.146;2023-04-07T09:32:49;1148.90;;;999.90;;
68995;SDS011;56056;48.990;12.146;2023-04-07T09:35:15;1113.85;;;971.08;;
68995;SDS011;56056;48.990;12.146;2023-04-07T09:37:41;1282.25;;;999.90;;
68995;SDS011;56056;48.990;12.146;2023-04-07T09:40:07;1266.13;;;999.90;;
68995;SDS011;56056;48.990;12.146;2023-04-07T09:42:33;1161.00;;;999.90;;
68995;SDS011;56056;48.990;12.146;2023-04-07T09:45:02;1203.72;;;999.90;;
68995;SDS011;56056;48.990;12.146;2023-04-07T09:47:29;1253.13;;;999.90;;
68995;SDS011;56056;48.990;12.146;2023-04-07T09:49:56;1162.03;;;999.90;;
68995;SDS011;56056;48.990;12.146;2023-04-07T09:52:24;1345.15;;;999.90;;
68995;SDS011;56056;48.990;12.146;2023-04-07T09:54:58;1184.38;;;999.90;;
68995;SDS011;56056;48.990;12.146;2023-04-07T09:57:23;1305.18;;;999.90;;
68995;SDS011;56056;48.990;12.146;2023-04-07T09:59:49;1173.20;;;999.90;;
68995;SDS011;56056;48.990;12.146;2023-04-07T10:02:17;1260.28;;;999.90;;
68995;SDS011;56056;48.990;12.146;2023-04-07T10:04:43;1192.13;;;999.90;;
68995;SDS011;56056;48.990;12.146;2023-04-07T10:07:09;1141.97;;;999.90;;
68995;SDS011;56056;48.990;12.146;2023-04-07T10:09:35;1190.72;;;999.90;;
68995;SDS011;56056;48.990;12.146;2023-04-07T10:12:00;1262.68;;;999.90;;
68995;SDS011;56056;48.990;12.146;2023-04-07T10:14:27;1166.82;;;999.90;;
68995;SDS011;56056;48.990;12.146;2023-04-07T10:16:55;1174.90;;;999.90;;
68995;SDS011;56056;48.990;12.146;2023-04-07T10:19:22;1134.68;;;999.90;;
68995;SDS011;56056;48.990;12.146;2023-04-07T10:21:49;1161.78;;;999.90;;
68995;SDS011;56056;48.990;12.146;2023-04-07T10:24:18;1209.35;;;999.90;;
68995;SDS011;56056;48.990;12.146;2023-04-07T10:26:58;1202.50;;;999.90;;
68995;SDS011;56056;48.990;12.146;2023-04-07T10:29:26;1265.03;;;999.90;;
68995;SDS011;56056;48.990;12.146;2023-04-07T10:31:54;1177.28;;;999.90;;
68995;SDS011;56056;48.990;12.146;2023-04-07T10:37:18;1219.07;;;999.90;;
68995;SDS011;56056;48.990;12.146;2023-04-07T10:39:48;1175.25;;;999.90;;
68995;SDS011;56056;48.990;12.146;2023-04-07T10:45:09;1143.57;;;999.90;;
68995;SDS011;56056;48.990;12.146;2023-04-07T10:47:39;1316.05;;;999.90;;
68995;SDS011;56056;48.990;12.146;2023-04-07T10:50:36;1161.05;;;999.90;;
68995;SDS011;56056;48.990;12.146;2023-04-07T10:53:06;1199.25;;;999.90;;
68995;SDS011;56056;48.990;12.146;2023-04-07T10:55:35;1145.15;;;986.92;;
68995;SDS011;56056;48.990;12.146;2023-04-07T10:58:15;1246.15;;;999.90;;
68995;SDS011;56056;48.990;12.146;2023-04-07T11:03:51;1265.80;;;998.53;;
68995;SDS011;56056;48.990;12.146;2023-04-07T11:06:18;1407.15;;;999.90;;
68995;SDS011;56056;48.990;12.146;2023-04-07T11:08:44;1160.50;;;966.85;;
68995;SDS011;56056;48.990;12.146;2023-04-07T11:11:11;1373.55;;;999.90;;
68995;SDS011;56056;48.990;12.146;2023-04-07T11:13:41;1319.65;;;999.90;;
68995;SDS011;56056;48.990;12.146;2023-04-07T11:16:07;1212.32;;;999.20;;
68995;SDS011;56056;48.990;12.146;2023-04-07T11:18:33;1381.93;;;999.90;;
68995;SDS011;56056;48.990;12.146;2023-04-07T11:21:01;1272.93;;;999.08;;
68995;SDS011;56056;48.990;12.146;2023-04-07T11:23:27;1226.07;;;976.38;;
68995;SDS011;56056;48.990;12.146;2023-04-07T11:25:58;1322.68;;;999.90;;
68995;SDS011;56056;48.990;12.146;2023-04-07T11:28:26;1304.95;;;999.88;;
68995;SDS011;56056;48.990;12.146;2023-04-07T11:30:52;1563.55;;;999.90;;
68995;SDS011;56056;48.990;12.146;2023-04-07T11:33:19;1328.95;;;999.90;;
68995;SDS011;56056;48.990;12.146;2023-04-07T11:35:46;1477.13;;;999.90;;
68995;SDS011;56056;48.990;12.146;2023-04-07T11:38:14;1266.95;;;999.90;;
68995;SDS011;56056;48.990;12.146;2023-04-07T11:40:40;1384.18;;;999.90;;
68995;SDS011;56056;48.990;12.146;2023-04-07T11:43:14;1360.25;;;999.90;;
68995;SDS011;56056;48.990;12.146;2023-04-07T11:45:41;1297.88;;;999.90;;
68995;SDS011;56056;48.990;12.146;2023-04-07T11:50:51;1449.40;;;999.90;;
68995;SDS011;56056;48.990;12.146;2023-04-07T11:53:24;1366.90;;;999.90;;
68995;SDS011;56056;48.990;12.146;2023-04-07T11:55:57;1376.32;;;999.90;;
68995;SDS011;56056;48.990;12.146;2023-04-07T11:58:24;1246.38;;;999.90;;
68995;SDS011;56056;48.990;12.146;2023-04-07T12:00:53;1257.93;;;999.90;;
68995;SDS011;56056;48.990;12.146;2023-04-07T12:03:20;1282.55;;;999.90;;
68995;SDS011;56056;48.990;12.146;2023-04-07T12:05:45;1252.72;;;999.90;;
68995;SDS011;56056;48.990;12.146;2023-04-07T12:08:12;1259.03;;;999.90;;
68995;SDS011;56056;48.990;12.146;2023-04-07T12:10:39;1321.47;;;999.90;;
68995;SDS011;56056;48.990;12.146;2023-04-07T12:13:05;1274.05;;;999.90;;
68995;SDS011;56056;48.990;12.146;2023-04-07T12:15:32;1224.43;;;999.90;;
68995;SDS011;56056;48.990;12.146;2023-04-07T12:17:58;1230.97;;;999.90;;
68995;SDS011;56056;48.990;12.146;2023-04-07T12:20:23;1647.28;;;999.90;;
68995;SDS011;56056;48.990;12.146;2023-04-07T12:22:49;1230.80;;;999.90;;
68995;SDS011;56056;48.990;12.146;2023-04-07T12:25:15;1283.88;;;999.90;;
68995;SDS011;56056;48.990;12.146;2023-04-07T12:27:42;1256.68;;;999.90;;
68995;SDS011;56056;48.990;12.146;2023-04-07T12:30:08;1471.22;;;999.90;;
68995;SDS011;56056;48.990;12.146;2023-04-07T12:32:34;1402.80;;;999.90;;
68995;SDS011;56056;48.990;12.146;2023-04-07T12:35:00;1260.18;;;999.90;;
68995;SDS011;56056;48.990;12.146;2023-04-07T12:37:25;1277.88;;;999.90;;
68995;SDS011;56056;48.990;12.146;2023-04-07T12:39:51;1421.25;;;999.90;;
68995;SDS011;56056;48.990;12.146;2023-04-07T12:42:17;1654.80;;;999.90;;
68995;SDS011;56056;48.990;12.146;2023-04-07T12:44:44;1481.82;;;999.90;;
68995;SDS011;56056;48.990;12.146;2023-04-07T12:47:10;1617.03;;;999.90;;
68995;SDS011;56056;48.990;12.146;2023-04-07T12:49:36;1328.57;;;999.90;;
68995;SDS011;56056;48.990;12.146;2023-04-07T12:52:02;1555.72;;;999.90;;
68995;SDS011;56056;48.990;12.146;2023-04-07T12:54:27;1539.70;;;999.90;;
68995;SDS011;56056;48.990;12.146;2023-04-07T12:56:54;1432.60;;;999.90;;
68995;SDS011;56056;48.990;12.146;2023-04-07T12:59:21;1449.50;;;999.90;;
68995;SDS011;56056;48.990;12.146;2023-04-07T13:01:49;1366.63;;;999.90;;
68995;SDS011;56056;48.990;12.146;2023-04-07T13:04:15;1561.43;;;999.90;;
68995;SDS011;56056;48.990;12.146;2023-04-07T13:06:41;1356.28;;;999.90;;
68995;SDS011;56056;48.990;12.146;2023-04-07T13:09:07;1401.38;;;999.90;;
68995;SDS011;56056;48.990;12.146;2023-04-07T13:11:33;1384.38;;;999.90;;
68995;SDS011;56056;48.990;12.146;2023-04-07T13:13:58;1996.75;;;999.90;;
68995;SDS011;56056;48.990;12.146;2023-04-07T13:16:25;1410.25;;;999.90;;
68995;SDS011;56056;48.990;12.146;2023-04-07T13:18:52;1572.78;;;999.90;;
68995;SDS011;56056;48.990;12.146;2023-04-07T13:21:17;1581.03;;;999.90;;
68995;SDS011;56056;48.990;12.146;2023-04-07T13:23:43;1469.55;;;999.90;;
68995;SDS011;56056;48.990;12.146;2023-04-07T13:26:08;1354.22;;;999.90;;
68995;SDS011;56056;48.990;12.146;2023-04-07T13:28:34;1453.50;;;999.90;;
68995;SDS011;56056;48.990;12.146;2023-04-07T13:31:00;1456.85;;;999.90;;
68995;SDS011;56056;48.990;12.146;2023-04-07T13:33:25;1481.18;;;999.90;;
68995;SDS011;56056;48.990;12.146;2023-04-07T13:35:52;1470.68;;;999.90;;
68995;SDS011;56056;48.990;12.146;2023-04-07T13:38:18;1531.88;;;999.90;;
68995;SDS011;56056;48.990;12.146;2023-04-07T13:40:44;1665.15;;;999.90;;
68995;SDS011;56056;48.990;12.146;2023-04-07T13:43:11;1491.07;;;999.90;;
68995;SDS011;56056;48.990;12.146;2023-04-07T13:45:37;1504.05;;;999.90;;
68995;SDS011;56056;48.990;12.146;2023-04-07T13:48:03;1542.35;;;999.90;;
68995;SDS011;56056;48.990;12.146;2023-04-07T13:50:28;1618.05;;;999.90;;
68995;SDS011;56056;48.990;12.146;2023-04-07T13:52:55;1523.93;;;999.90;;
68995;SDS011;56056;48.990;12.146;2023-04-07T13:55:21;1550.38;;;999.90;;
68995;SDS011;56056;48.990;12.146;2023-04-07T13:57:47;1655.90;;;999.90;;
68995;SDS011;56056;48.990;12.146;2023-04-07T14:00:13;1764.07;;;999.90;;
68995;SDS011;56056;48.990;12.146;2023-04-07T14:02:39;1581.28;;;999.90;;
68995;SDS011;56056;48.990;12.146;2023-04-07T14:05:05;1592.15;;;999.90;;